sensor_id;sensor_type;location;lat;lon;timestamp;P1;durP1;ratioP1;P2;durP2;ratioP2
15153;SDS011;7677;41.896;25.004;2022-12-26T00:00:15;2.10;;;1.63;;
15153;SDS011;7677;41.896;25.004;2022-12-26T00:02:43;0.90;;;0.90;;
15153;SDS011;7677;41.896;25.004;2022-12-26T00:05:10;2.27;;;1.40;;
15153;SDS011;7677;41.896;25.004;2022-12-26T00:07:39;3.93;;;1.00;;
15153;SDS011;7677;41.896;25.004;2022-12-26T00:10:10;1.77;;;1.07;;
15153;SDS011;7677;41.896;25.004;2022-12-26T00:12:37;1.17;;;1.10;;
15153;SDS011;7677;41.896;25.004;2022-12-26T00:15:04;1.03;;;1.03;;
15153;SDS011;7677;41.896;25.004;2022-12-26T00:17:34;1.13;;;1.13;;
15153;SDS011;7677;41.896;25.004;2022-12-26T00:20:01;1.10;;;1.10;;
15153;SDS011;7677;41.896;25.004;2022-12-26T00:22:28;0.90;;;0.90;;
15153;SDS011;7677;41.896;25.004;2022-12-26T00:24:56;0.90;;;0.90;;
15153;SDS011;7677;41.896;25.004;2022-12-26T00:27:24;0.97;;;0.97;;
15153;SDS011;7677;41.896;25.004;2022-12-26T00:29:52;0.90;;;0.90;;
15153;SDS011;7677;41.896;25.004;2022-12-26T00:32:19;1.20;;;1.10;;
15153;SDS011;7677;41.896;25.004;2022-12-26T00:34:46;1.13;;;1.03;;
15153;SDS011;7677;41.896;25.004;2022-12-26T00:37:14;1.70;;;0.90;;
15153;SDS011;7677;41.896;25.004;2022-12-26T00:39:41;1.03;;;1.03;;
15153;SDS011;7677;41.896;25.004;2022-12-26T00:42:08;1.10;;;1.00;;
15153;SDS011;7677;41.896;25.004;2022-12-26T00:44:37;1.00;;;1.00;;
15153;SDS011;7677;41.896;25.004;2022-12-26T00:47:04;1.07;;;0.93;;
15153;SDS011;7677;41.896;25.004;2022-12-26T00:49:32;2.00;;;1.00;;
15153;SDS011;7677;41.896;25.004;2022-12-26T00:51:59;1.17;;;1.00;;
15153;SDS011;7677;41.896;25.004;2022-12-26T00:54:26;1.27;;;1.10;;
15153;SDS011;7677;41.896;25.004;2022-12-26T00:56:53;1.00;;;1.00;;
15153;SDS011;7677;41.896;25.004;2022-12-26T00:59:21;1.17;;;1.10;;
15153;SDS011;7677;41.896;25.004;2022-12-26T01:01:50;1.30;;;1.00;;
15153;SDS011;7677;41.896;25.004;2022-12-26T01:04:17;0.97;;;0.97;;
15153;SDS011;7677;41.896;25.004;2022-12-26T01:06:45;1.10;;;1.03;;
15153;SDS011;7677;41.896;25.004;2022-12-26T01:09:12;1.10;;;1.00;;
15153;SDS011;7677;41.896;25.004;2022-12-26T01:11:39;1.23;;;1.00;;
15153;SDS011;7677;41.896;25.004;2022-12-26T01:14:11;1.53;;;1.00;;
15153;SDS011;7677;41.896;25.004;2022-12-26T01:16:41;1.63;;;1.00;;
15153;SDS011;7677;41.896;25.004;2022-12-26T01:19:11;0.90;;;0.90;;
15153;SDS011;7677;41.896;25.004;2022-12-26T01:21:38;0.80;;;0.80;;
15153;SDS011;7677;41.896;25.004;2022-12-26T01:24:07;1.00;;;1.00;;
15153;SDS011;7677;41.896;25.004;2022-12-26T01:26:34;2.83;;;1.23;;
15153;SDS011;7677;41.896;25.004;2022-12-26T01:29:01;1.00;;;1.00;;
15153;SDS011;7677;41.896;25.004;2022-12-26T01:31:28;0.93;;;0.93;;
15153;SDS011;7677;41.896;25.004;2022-12-26T01:33:55;1.30;;;0.93;;
15153;SDS011;7677;41.896;25.004;2022-12-26T01:36:24;1.90;;;1.10;;
15153;SDS011;7677;41.896;25.004;2022-12-26T01:38:52;1.10;;;1.10;;
15153;SDS011;7677;41.896;25.004;2022-12-26T01:41:19;1.03;;;1.03;;
15153;SDS011;7677;41.896;25.004;2022-12-26T01:43:48;0.80;;;0.80;;
15153;SDS011;7677;41.896;25.004;2022-12-26T01:46:18;0.93;;;0.90;;
15153;SDS011;7677;41.896;25.004;2022-12-26T01:48:46;0.70;;;0.70;;
15153;SDS011;7677;41.896;25.004;2022-12-26T01:51:16;1.13;;;1.10;;
15153;SDS011;7677;41.896;25.004;2022-12-26T01:53:49;0.70;;;0.70;;
15153;SDS011;7677;41.896;25.004;2022-12-26T01:56:22;1.67;;;1.07;;
15153;SDS011;7677;41.896;25.004;2022-12-26T01:58:52;1.10;;;1.10;;
15153;SDS011;7677;41.896;25.004;2022-12-26T02:01:24;0.93;;;0.80;;
15153;SDS011;7677;41.896;25.004;2022-12-26T02:03:54;1.10;;;1.07;;
15153;SDS011;7677;41.896;25.004;2022-12-26T02:06:38;1.00;;;0.97;;
15153;SDS011;7677;41.896;25.004;2022-12-26T02:09:07;0.90;;;0.90;;
15153;SDS011;7677;41.896;25.004;2022-12-26T02:11:37;0.90;;;0.90;;
15153;SDS011;7677;41.896;25.004;2022-12-26T02:14:06;0.90;;;0.90;;
15153;SDS011;7677;41.896;25.004;2022-12-26T02:16:35;0.77;;;0.77;;
15153;SDS011;7677;41.896;25.004;2022-12-26T02:19:11;1.27;;;1.00;;
15153;SDS011;7677;41.896;25.004;2022-12-26T02:21:56;0.80;;;0.80;;
15153;SDS011;7677;41.896;25.004;2022-12-26T02:24:50;1.00;;;1.00;;
15153;SDS011;7677;41.896;25.004;2022-12-26T02:30:31;0.93;;;0.93;;
15153;SDS011;7677;41.896;25.004;2022-12-26T02:33:17;1.00;;;1.00;;
15153;SDS011;7677;41.896;25.004;2022-12-26T02:36:19;0.80;;;0.80;;
15153;SDS011;7677;41.896;25.004;2022-12-26T02:39:08;2.33;;;0.90;;
15153;SDS011;7677;41.896;25.004;2022-12-26T02:41:42;0.80;;;0.80;;
15153;SDS011;7677;41.896;25.004;2022-12-26T02:44:17;0.70;;;0.70;;
15153;SDS011;7677;41.896;25.004;2022-12-26T02:47:10;0.90;;;0.90;;
15153;SDS011;7677;41.896;25.004;2022-12-26T02:49:44;0.97;;;0.97;;
15153;SDS011;7677;41.896;25.004;2022-12-26T02:52:53;0.90;;;0.90;;
15153;SDS011;7677;41.896;25.004;2022-12-26T02:55:47;1.33;;;1.13;;
15153;SDS011;7677;41.896;25.004;2022-12-26T02:58:35;1.63;;;0.73;;
15153;SDS011;7677;41.896;25.004;2022-12-26T03:01:35;1.10;;;1.10;;
15153;SDS011;7677;41.896;25.004;2022-12-26T03:04:23;0.90;;;0.90;;
15153;SDS011;7677;41.896;25.004;2022-12-26T03:07:11;0.70;;;0.70;;
15153;SDS011;7677;41.896;25.004;2022-12-26T03:10:13;0.93;;;0.77;;
15153;SDS011;7677;41.896;25.004;2022-12-26T03:13:00;0.90;;;0.90;;
15153;SDS011;7677;41.896;25.004;2022-12-26T03:15:42;1.07;;;1.03;;
15153;SDS011;7677;41.896;25.004;2022-12-26T03:18:29;0.70;;;0.70;;
15153;SDS011;7677;41.896;25.004;2022-12-26T03:21:01;0.90;;;0.90;;
15153;SDS011;7677;41.896;25.004;2022-12-26T03:23:30;0.80;;;0.80;;
15153;SDS011;7677;41.896;25.004;2022-12-26T03:25:58;0.90;;;0.90;;
15153;SDS011;7677;41.896;25.004;2022-12-26T03:28:45;0.80;;;0.80;;
15153;SDS011;7677;41.896;25.004;2022-12-26T03:31:13;0.80;;;0.80;;
15153;SDS011;7677;41.896;25.004;2022-12-26T03:33:41;0.83;;;0.83;;
15153;SDS011;7677;41.896;25.004;2022-12-26T03:36:30;0.80;;;0.80;;
15153;SDS011;7677;41.896;25.004;2022-12-26T03:39:05;0.80;;;0.80;;
15153;SDS011;7677;41.896;25.004;2022-12-26T03:41:38;0.90;;;0.90;;
15153;SDS011;7677;41.896;25.004;2022-12-26T03:44:28;0.80;;;0.80;;
15153;SDS011;7677;41.896;25.004;2022-12-26T03:47:16;0.90;;;0.90;;
15153;SDS011;7677;41.896;25.004;2022-12-26T03:50:06;0.80;;;0.80;;
15153;SDS011;7677;41.896;25.004;2022-12-26T03:52:58;0.80;;;0.80;;
15153;SDS011;7677;41.896;25.004;2022-12-26T03:55:48;1.03;;;1.03;;
15153;SDS011;7677;41.896;25.004;2022-12-26T03:58:40;0.80;;;0.80;;
15153;SDS011;7677;41.896;25.004;2022-12-26T04:01:26;1.80;;;0.83;;
15153;SDS011;7677;41.896;25.004;2022-12-26T04:04:12;1.20;;;1.20;;
15153;SDS011;7677;41.896;25.004;2022-12-26T04:06:55;2.27;;;0.93;;
15153;SDS011;7677;41.896;25.004;2022-12-26T04:09:56;0.80;;;0.80;;
15153;SDS011;7677;41.896;25.004;2022-12-26T04:12:43;1.03;;;1.00;;
15153;SDS011;7677;41.896;25.004;2022-12-26T04:15:40;0.90;;;0.90;;
15153;SDS011;7677;41.896;25.004;2022-12-26T04:18:27;1.07;;;1.00;;
15153;SDS011;7677;41.896;25.004;2022-12-26T04:21:15;0.80;;;0.80;;
15153;SDS011;7677;41.896;25.004;2022-12-26T04:24:02;0.87;;;0.87;;
15153;SDS011;7677;41.896;25.004;2022-12-26T04:26:51;0.90;;;0.90;;
15153;SDS011;7677;41.896;25.004;2022-12-26T04:29:38;0.70;;;0.70;;
15153;SDS011;7677;41.896;25.004;2022-12-26T04:32:24;0.90;;;0.90;;
15153;SDS011;7677;41.896;25.004;2022-12-26T04:35:17;0.80;;;0.80;;
15153;SDS011;7677;41.896;25.004;2022-12-26T04:38:04;0.90;;;0.90;;
15153;SDS011;7677;41.896;25.004;2022-12-26T04:40:50;0.90;;;0.90;;
15153;SDS011;7677;41.896;25.004;2022-12-26T04:43:39;0.73;;;0.73;;
15153;SDS011;7677;41.896;25.004;2022-12-26T04:46:24;1.20;;;1.10;;
15153;SDS011;7677;41.896;25.004;2022-12-26T04:48:52;0.90;;;0.90;;
15153;SDS011;7677;41.896;25.004;2022-12-26T04:51:38;0.80;;;0.80;;
15153;SDS011;7677;41.896;25.004;2022-12-26T04:54:05;0.90;;;0.90;;
15153;SDS011;7677;41.896;25.004;2022-12-26T04:56:33;1.00;;;1.00;;
15153;SDS011;7677;41.896;25.004;2022-12-26T04:59:02;1.00;;;1.00;;
15153;SDS011;7677;41.896;25.004;2022-12-26T05:01:29;0.80;;;0.80;;
15153;SDS011;7677;41.896;25.004;2022-12-26T05:04:14;1.60;;;0.80;;
15153;SDS011;7677;41.896;25.004;2022-12-26T05:06:58;0.80;;;0.80;;
15153;SDS011;7677;41.896;25.004;2022-12-26T05:09:43;0.90;;;0.90;;
15153;SDS011;7677;41.896;25.004;2022-12-26T05:12:11;1.13;;;0.90;;
15153;SDS011;7677;41.896;25.004;2022-12-26T05:14:40;1.10;;;1.10;;
15153;SDS011;7677;41.896;25.004;2022-12-26T05:17:07;1.13;;;1.00;;
15153;SDS011;7677;41.896;25.004;2022-12-26T05:19:51;0.80;;;0.80;;
15153;SDS011;7677;41.896;25.004;2022-12-26T05:22:37;0.80;;;0.80;;
15153;SDS011;7677;41.896;25.004;2022-12-26T05:25:24;1.10;;;1.10;;
15153;SDS011;7677;41.896;25.004;2022-12-26T05:28:18;0.90;;;0.90;;
15153;SDS011;7677;41.896;25.004;2022-12-26T05:31:05;2.93;;;0.80;;
15153;SDS011;7677;41.896;25.004;2022-12-26T05:33:32;0.77;;;0.77;;
15153;SDS011;7677;41.896;25.004;2022-12-26T05:36:18;0.80;;;0.80;;
15153;SDS011;7677;41.896;25.004;2022-12-26T05:38:46;0.73;;;0.73;;
15153;SDS011;7677;41.896;25.004;2022-12-26T05:41:13;0.60;;;0.60;;
15153;SDS011;7677;41.896;25.004;2022-12-26T05:43:41;0.70;;;0.70;;
15153;SDS011;7677;41.896;25.004;2022-12-26T05:46:09;2.57;;;0.90;;
15153;SDS011;7677;41.896;25.004;2022-12-26T05:48:36;0.87;;;0.87;;
15153;SDS011;7677;41.896;25.004;2022-12-26T05:51:04;0.80;;;0.80;;
15153;SDS011;7677;41.896;25.004;2022-12-26T05:53:32;2.70;;;0.80;;
15153;SDS011;7677;41.896;25.004;2022-12-26T05:56:01;0.83;;;0.83;;
15153;SDS011;7677;41.896;25.004;2022-12-26T05:58:30;1.00;;;1.00;;
15153;SDS011;7677;41.896;25.004;2022-12-26T06:01:05;1.60;;;1.40;;
15153;SDS011;7677;41.896;25.004;2022-12-26T06:03:34;2.23;;;2.03;;
15153;SDS011;7677;41.896;25.004;2022-12-26T06:06:02;1.63;;;1.37;;
15153;SDS011;7677;41.896;25.004;2022-12-26T06:08:29;1.43;;;1.27;;
15153;SDS011;7677;41.896;25.004;2022-12-26T06:10:56;1.47;;;0.70;;
15153;SDS011;7677;41.896;25.004;2022-12-26T06:13:24;0.83;;;0.83;;
15153;SDS011;7677;41.896;25.004;2022-12-26T06:15:51;1.20;;;1.10;;
15153;SDS011;7677;41.896;25.004;2022-12-26T06:18:19;3.73;;;1.07;;
15153;SDS011;7677;41.896;25.004;2022-12-26T06:20:48;1.90;;;0.90;;
15153;SDS011;7677;41.896;25.004;2022-12-26T06:23:15;1.13;;;1.03;;
15153;SDS011;7677;41.896;25.004;2022-12-26T06:25:42;1.13;;;1.00;;
15153;SDS011;7677;41.896;25.004;2022-12-26T06:28:09;0.77;;;0.77;;
15153;SDS011;7677;41.896;25.004;2022-12-26T06:30:36;1.27;;;1.10;;
15153;SDS011;7677;41.896;25.004;2022-12-26T06:33:03;0.90;;;0.90;;
15153;SDS011;7677;41.896;25.004;2022-12-26T06:35:32;1.20;;;1.10;;
15153;SDS011;7677;41.896;25.004;2022-12-26T06:38:01;0.80;;;0.80;;
15153;SDS011;7677;41.896;25.004;2022-12-26T06:40:28;0.73;;;0.73;;
15153;SDS011;7677;41.896;25.004;2022-12-26T06:42:56;0.80;;;0.80;;
15153;SDS011;7677;41.896;25.004;2022-12-26T06:45:23;0.87;;;0.87;;
15153;SDS011;7677;41.896;25.004;2022-12-26T06:47:50;0.90;;;0.90;;
15153;SDS011;7677;41.896;25.004;2022-12-26T06:50:17;1.53;;;0.80;;
15153;SDS011;7677;41.896;25.004;2022-12-26T06:52:47;1.00;;;1.00;;
15153;SDS011;7677;41.896;25.004;2022-12-26T06:55:15;0.80;;;0.80;;
15153;SDS011;7677;41.896;25.004;2022-12-26T06:57:44;1.07;;;0.83;;
15153;SDS011;7677;41.896;25.004;2022-12-26T07:00:12;1.03;;;1.00;;
15153;SDS011;7677;41.896;25.004;2022-12-26T07:02:40;0.70;;;0.70;;
15153;SDS011;7677;41.896;25.004;2022-12-26T07:05:08;1.00;;;1.00;;
15153;SDS011;7677;41.896;25.004;2022-12-26T07:07:35;0.73;;;0.73;;
15153;SDS011;7677;41.896;25.004;2022-12-26T07:10:03;1.53;;;1.03;;
15153;SDS011;7677;41.896;25.004;2022-12-26T07:12:34;1.07;;;0.90;;
15153;SDS011;7677;41.896;25.004;2022-12-26T07:15:01;0.90;;;0.90;;
15153;SDS011;7677;41.896;25.004;2022-12-26T07:17:29;12.93;;;7.27;;
15153;SDS011;7677;41.896;25.004;2022-12-26T07:19:56;33.27;;;17.43;;
15153;SDS011;7677;41.896;25.004;2022-12-26T07:22:24;24.73;;;20.57;;
15153;SDS011;7677;41.896;25.004;2022-12-26T07:24:52;19.80;;;16.13;;
15153;SDS011;7677;41.896;25.004;2022-12-26T07:27:19;12.20;;;11.03;;
15153;SDS011;7677;41.896;25.004;2022-12-26T07:29:51;5.90;;;5.23;;
15153;SDS011;7677;41.896;25.004;2022-12-26T07:32:18;4.43;;;4.03;;
15153;SDS011;7677;41.896;25.004;2022-12-26T07:34:46;4.37;;;3.97;;
15153;SDS011;7677;41.896;25.004;2022-12-26T07:37:13;2.63;;;2.43;;
15153;SDS011;7677;41.896;25.004;2022-12-26T07:39:40;1.30;;;1.30;;
15153;SDS011;7677;41.896;25.004;2022-12-26T07:42:08;2.87;;;1.77;;
15153;SDS011;7677;41.896;25.004;2022-12-26T07:44:35;1.50;;;1.20;;
15153;SDS011;7677;41.896;25.004;2022-12-26T07:47:05;2.00;;;1.20;;
15153;SDS011;7677;41.896;25.004;2022-12-26T07:49:32;1.20;;;1.10;;
15153;SDS011;7677;41.896;25.004;2022-12-26T07:51:59;2.83;;;1.23;;
15153;SDS011;7677;41.896;25.004;2022-12-26T07:54:27;1.30;;;1.20;;
15153;SDS011;7677;41.896;25.004;2022-12-26T07:56:57;3.93;;;2.43;;
15153;SDS011;7677;41.896;25.004;2022-12-26T07:59:27;12.10;;;5.60;;
15153;SDS011;7677;41.896;25.004;2022-12-26T08:01:57;2.17;;;1.63;;
15153;SDS011;7677;41.896;25.004;2022-12-26T08:04:30;2.40;;;1.93;;
15153;SDS011;7677;41.896;25.004;2022-12-26T08:06:58;6.13;;;1.83;;
15153;SDS011;7677;41.896;25.004;2022-12-26T08:09:33;1.57;;;1.47;;
15153;SDS011;7677;41.896;25.004;2022-12-26T08:12:04;1.40;;;1.30;;
15153;SDS011;7677;41.896;25.004;2022-12-26T08:14:31;1.30;;;1.20;;
15153;SDS011;7677;41.896;25.004;2022-12-26T08:16:59;38.17;;;17.30;;
15153;SDS011;7677;41.896;25.004;2022-12-26T08:19:26;7.87;;;4.77;;
15153;SDS011;7677;41.896;25.004;2022-12-26T08:21:54;3.87;;;2.33;;
15153;SDS011;7677;41.896;25.004;2022-12-26T08:24:22;1.60;;;1.50;;
15153;SDS011;7677;41.896;25.004;2022-12-26T08:26:49;3.17;;;1.57;;
15153;SDS011;7677;41.896;25.004;2022-12-26T08:29:17;2.00;;;1.80;;
15153;SDS011;7677;41.896;25.004;2022-12-26T08:31:44;1.93;;;1.57;;
15153;SDS011;7677;41.896;25.004;2022-12-26T08:34:11;1.20;;;1.20;;
15153;SDS011;7677;41.896;25.004;2022-12-26T08:36:38;2.13;;;1.50;;
15153;SDS011;7677;41.896;25.004;2022-12-26T08:39:07;3.30;;;1.97;;
15153;SDS011;7677;41.896;25.004;2022-12-26T08:41:34;1.90;;;1.30;;
15153;SDS011;7677;41.896;25.004;2022-12-26T08:44:02;4.00;;;1.83;;
15153;SDS011;7677;41.896;25.004;2022-12-26T08:46:29;5.63;;;1.70;;
15153;SDS011;7677;41.896;25.004;2022-12-26T08:48:56;2.47;;;1.50;;
15153;SDS011;7677;41.896;25.004;2022-12-26T08:51:24;2.17;;;1.70;;
15153;SDS011;7677;41.896;25.004;2022-12-26T08:53:51;1.90;;;1.70;;
15153;SDS011;7677;41.896;25.004;2022-12-26T08:56:22;3.20;;;2.57;;
15153;SDS011;7677;41.896;25.004;2022-12-26T08:58:51;2.60;;;2.13;;
15153;SDS011;7677;41.896;25.004;2022-12-26T09:01:19;3.67;;;2.03;;
15153;SDS011;7677;41.896;25.004;2022-12-26T09:03:50;2.33;;;2.07;;
15153;SDS011;7677;41.896;25.004;2022-12-26T09:06:18;3.67;;;2.33;;
15153;SDS011;7677;41.896;25.004;2022-12-26T09:08:45;2.30;;;2.10;;
15153;SDS011;7677;41.896;25.004;2022-12-26T09:11:13;3.73;;;2.10;;
15153;SDS011;7677;41.896;25.004;2022-12-26T09:13:44;2.47;;;1.67;;
15153;SDS011;7677;41.896;25.004;2022-12-26T09:16:12;2.13;;;1.90;;
15153;SDS011;7677;41.896;25.004;2022-12-26T09:18:41;3.00;;;2.20;;
15153;SDS011;7677;41.896;25.004;2022-12-26T09:21:09;3.83;;;2.40;;
15153;SDS011;7677;41.896;25.004;2022-12-26T09:23:37;5.17;;;2.73;;
15153;SDS011;7677;41.896;25.004;2022-12-26T09:26:05;2.80;;;2.40;;
15153;SDS011;7677;41.896;25.004;2022-12-26T09:28:33;6.50;;;2.73;;
15153;SDS011;7677;41.896;25.004;2022-12-26T09:31:03;4.60;;;2.40;;
15153;SDS011;7677;41.896;25.004;2022-12-26T09:33:31;8.77;;;3.20;;
15153;SDS011;7677;41.896;25.004;2022-12-26T09:36:03;4.13;;;2.80;;
15153;SDS011;7677;41.896;25.004;2022-12-26T09:38:32;5.63;;;3.67;;
15153;SDS011;7677;41.896;25.004;2022-12-26T09:41:03;5.17;;;3.37;;
15153;SDS011;7677;41.896;25.004;2022-12-26T09:43:43;3.50;;;2.57;;
15153;SDS011;7677;41.896;25.004;2022-12-26T09:46:21;4.47;;;3.13;;
15153;SDS011;7677;41.896;25.004;2022-12-26T09:48:57;3.87;;;3.03;;
15153;SDS011;7677;41.896;25.004;2022-12-26T09:51:28;4.03;;;2.90;;
15153;SDS011;7677;41.896;25.004;2022-12-26T09:53:57;3.63;;;2.73;;
15153;SDS011;7677;41.896;25.004;2022-12-26T09:56:26;5.93;;;2.93;;
15153;SDS011;7677;41.896;25.004;2022-12-26T09:58:53;3.43;;;2.60;;
15153;SDS011;7677;41.896;25.004;2022-12-26T10:01:24;3.70;;;3.07;;
15153;SDS011;7677;41.896;25.004;2022-12-26T10:03:54;4.90;;;3.00;;
15153;SDS011;7677;41.896;25.004;2022-12-26T10:06:22;4.87;;;2.50;;
15153;SDS011;7677;41.896;25.004;2022-12-26T10:09:00;6.37;;;3.57;;
15153;SDS011;7677;41.896;25.004;2022-12-26T10:11:37;5.20;;;2.73;;
15153;SDS011;7677;41.896;25.004;2022-12-26T10:14:13;3.93;;;2.80;;
15153;SDS011;7677;41.896;25.004;2022-12-26T10:16:49;6.10;;;3.53;;
15153;SDS011;7677;41.896;25.004;2022-12-26T10:19:28;4.77;;;4.27;;
15153;SDS011;7677;41.896;25.004;2022-12-26T10:22:04;4.60;;;3.40;;
15153;SDS011;7677;41.896;25.004;2022-12-26T10:24:42;3.43;;;3.13;;
15153;SDS011;7677;41.896;25.004;2022-12-26T10:27:11;5.97;;;3.33;;
15153;SDS011;7677;41.896;25.004;2022-12-26T10:29:41;3.00;;;2.70;;
15153;SDS011;7677;41.896;25.004;2022-12-26T10:32:13;6.10;;;3.43;;
15153;SDS011;7677;41.896;25.004;2022-12-26T10:34:43;3.50;;;2.80;;
15153;SDS011;7677;41.896;25.004;2022-12-26T10:37:15;6.27;;;3.67;;
15153;SDS011;7677;41.896;25.004;2022-12-26T10:39:51;7.90;;;3.67;;
15153;SDS011;7677;41.896;25.004;2022-12-26T10:42:22;5.40;;;3.93;;
15153;SDS011;7677;41.896;25.004;2022-12-26T10:44:52;5.53;;;4.33;;
15153;SDS011;7677;41.896;25.004;2022-12-26T10:47:23;6.03;;;4.23;;
15153;SDS011;7677;41.896;25.004;2022-12-26T10:49:52;6.93;;;4.77;;
15153;SDS011;7677;41.896;25.004;2022-12-26T10:52:26;6.00;;;3.50;;
15153;SDS011;7677;41.896;25.004;2022-12-26T10:54:58;4.37;;;3.67;;
15153;SDS011;7677;41.896;25.004;2022-12-26T10:57:26;4.90;;;3.47;;
15153;SDS011;7677;41.896;25.004;2022-12-26T10:59:55;3.73;;;2.93;;
15153;SDS011;7677;41.896;25.004;2022-12-26T11:02:26;4.00;;;3.07;;
15153;SDS011;7677;41.896;25.004;2022-12-26T11:05:02;4.83;;;2.93;;
15153;SDS011;7677;41.896;25.004;2022-12-26T11:07:34;5.47;;;2.70;;
15153;SDS011;7677;41.896;25.004;2022-12-26T11:10:03;5.20;;;2.97;;
15153;SDS011;7677;41.896;25.004;2022-12-26T11:12:36;3.87;;;2.67;;
15153;SDS011;7677;41.896;25.004;2022-12-26T11:15:06;5.17;;;2.50;;
15153;SDS011;7677;41.896;25.004;2022-12-26T11:17:46;3.57;;;2.43;;
15153;SDS011;7677;41.896;25.004;2022-12-26T11:20:22;4.00;;;3.07;;
15153;SDS011;7677;41.896;25.004;2022-12-26T11:22:53;3.57;;;2.63;;
15153;SDS011;7677;41.896;25.004;2022-12-26T11:25:21;6.30;;;3.63;;
15153;SDS011;7677;41.896;25.004;2022-12-26T11:27:50;5.83;;;3.70;;
15153;SDS011;7677;41.896;25.004;2022-12-26T11:30:23;3.80;;;2.40;;
15153;SDS011;7677;41.896;25.004;2022-12-26T11:33:14;7.13;;;3.13;;
15153;SDS011;7677;41.896;25.004;2022-12-26T11:35:48;6.57;;;3.30;;
15153;SDS011;7677;41.896;25.004;2022-12-26T11:38:18;5.33;;;3.37;;
15153;SDS011;7677;41.896;25.004;2022-12-26T11:41:06;4.47;;;3.30;;
15153;SDS011;7677;41.896;25.004;2022-12-26T11:43:52;9.10;;;3.67;;
15153;SDS011;7677;41.896;25.004;2022-12-26T11:46:20;4.27;;;3.67;;
15153;SDS011;7677;41.896;25.004;2022-12-26T11:48:50;5.63;;;3.40;;
15153;SDS011;7677;41.896;25.004;2022-12-26T11:51:30;5.50;;;3.17;;
15153;SDS011;7677;41.896;25.004;2022-12-26T11:54:14;6.53;;;2.97;;
15153;SDS011;7677;41.896;25.004;2022-12-26T11:56:46;4.53;;;2.23;;
15153;SDS011;7677;41.896;25.004;2022-12-26T11:59:16;3.10;;;2.60;;
15153;SDS011;7677;41.896;25.004;2022-12-26T12:01:46;3.87;;;2.87;;
15153;SDS011;7677;41.896;25.004;2022-12-26T12:04:17;5.77;;;2.97;;
15153;SDS011;7677;41.896;25.004;2022-12-26T12:06:52;3.37;;;2.67;;
15153;SDS011;7677;41.896;25.004;2022-12-26T12:09:24;4.67;;;3.00;;
15153;SDS011;7677;41.896;25.004;2022-12-26T12:11:57;4.07;;;2.50;;
15153;SDS011;7677;41.896;25.004;2022-12-26T12:14:36;6.57;;;2.90;;
15153;SDS011;7677;41.896;25.004;2022-12-26T12:17:13;7.60;;;2.60;;
15153;SDS011;7677;41.896;25.004;2022-12-26T12:19:49;2.60;;;2.33;;
15153;SDS011;7677;41.896;25.004;2022-12-26T12:25:30;4.77;;;2.90;;
15153;SDS011;7677;41.896;25.004;2022-12-26T12:28:35;4.27;;;2.90;;
15153;SDS011;7677;41.896;25.004;2022-12-26T12:31:30;3.30;;;2.90;;
15153;SDS011;7677;41.896;25.004;2022-12-26T12:34:06;6.53;;;3.63;;
15153;SDS011;7677;41.896;25.004;2022-12-26T12:36:50;3.10;;;2.67;;
15153;SDS011;7677;41.896;25.004;2022-12-26T12:39:24;7.00;;;2.90;;
15153;SDS011;7677;41.896;25.004;2022-12-26T12:42:01;4.27;;;2.90;;
15153;SDS011;7677;41.896;25.004;2022-12-26T12:44:52;3.80;;;2.77;;
15153;SDS011;7677;41.896;25.004;2022-12-26T12:47:31;4.30;;;2.73;;
15153;SDS011;7677;41.896;25.004;2022-12-26T12:50:12;5.60;;;2.83;;
15153;SDS011;7677;41.896;25.004;2022-12-26T12:52:45;3.30;;;2.73;;
15153;SDS011;7677;41.896;25.004;2022-12-26T12:55:31;6.90;;;3.17;;
15153;SDS011;7677;41.896;25.004;2022-12-26T12:58:05;2.63;;;2.40;;
15153;SDS011;7677;41.896;25.004;2022-12-26T13:00:38;3.37;;;2.73;;
15153;SDS011;7677;41.896;25.004;2022-12-26T13:03:09;3.30;;;2.73;;
15153;SDS011;7677;41.896;25.004;2022-12-26T13:05:42;7.77;;;2.67;;
15153;SDS011;7677;41.896;25.004;2022-12-26T13:08:13;5.50;;;2.97;;
15153;SDS011;7677;41.896;25.004;2022-12-26T13:10:45;4.53;;;3.10;;
15153;SDS011;7677;41.896;25.004;2022-12-26T13:13:18;3.40;;;2.90;;
15153;SDS011;7677;41.896;25.004;2022-12-26T13:15:50;5.90;;;3.47;;
15153;SDS011;7677;41.896;25.004;2022-12-26T13:18:21;7.77;;;4.20;;
15153;SDS011;7677;41.896;25.004;2022-12-26T13:20:50;4.37;;;3.50;;
15153;SDS011;7677;41.896;25.004;2022-12-26T13:23:24;3.70;;;2.40;;
15153;SDS011;7677;41.896;25.004;2022-12-26T13:26:11;3.70;;;2.57;;
15153;SDS011;7677;41.896;25.004;2022-12-26T13:28:44;4.83;;;2.50;;
15153;SDS011;7677;41.896;25.004;2022-12-26T13:31:19;4.43;;;2.57;;
15153;SDS011;7677;41.896;25.004;2022-12-26T13:33:47;3.33;;;2.50;;
15153;SDS011;7677;41.896;25.004;2022-12-26T13:39:15;3.70;;;2.80;;
15153;SDS011;7677;41.896;25.004;2022-12-26T13:41:59;3.30;;;2.90;;
15153;SDS011;7677;41.896;25.004;2022-12-26T13:44:47;4.80;;;3.30;;
15153;SDS011;7677;41.896;25.004;2022-12-26T13:47:30;3.47;;;3.00;;
15153;SDS011;7677;41.896;25.004;2022-12-26T13:52:59;5.47;;;3.03;;
15153;SDS011;7677;41.896;25.004;2022-12-26T13:55:31;8.70;;;4.10;;
15153;SDS011;7677;41.896;25.004;2022-12-26T13:58:27;6.93;;;3.80;;
15153;SDS011;7677;41.896;25.004;2022-12-26T14:01:18;4.93;;;3.30;;
15153;SDS011;7677;41.896;25.004;2022-12-26T14:04:07;5.53;;;3.23;;
15153;SDS011;7677;41.896;25.004;2022-12-26T14:06:46;6.13;;;3.83;;
15153;SDS011;7677;41.896;25.004;2022-12-26T14:09:36;5.57;;;3.13;;
15153;SDS011;7677;41.896;25.004;2022-12-26T14:15:18;4.33;;;2.83;;
15153;SDS011;7677;41.896;25.004;2022-12-26T14:17:52;3.87;;;2.77;;
15153;SDS011;7677;41.896;25.004;2022-12-26T14:20:27;4.90;;;2.90;;
15153;SDS011;7677;41.896;25.004;2022-12-26T14:23:04;4.83;;;2.53;;
15153;SDS011;7677;41.896;25.004;2022-12-26T14:25:45;4.87;;;2.90;;
15153;SDS011;7677;41.896;25.004;2022-12-26T14:28:17;3.07;;;2.50;;
15153;SDS011;7677;41.896;25.004;2022-12-26T14:30:52;3.20;;;2.50;;
15153;SDS011;7677;41.896;25.004;2022-12-26T14:33:25;4.93;;;3.17;;
15153;SDS011;7677;41.896;25.004;2022-12-26T14:35:58;4.33;;;3.40;;
15153;SDS011;7677;41.896;25.004;2022-12-26T14:38:37;4.53;;;2.70;;
15153;SDS011;7677;41.896;25.004;2022-12-26T14:41:10;5.33;;;3.53;;
15153;SDS011;7677;41.896;25.004;2022-12-26T14:44:08;4.90;;;3.40;;
15153;SDS011;7677;41.896;25.004;2022-12-26T14:46:57;7.87;;;3.33;;
15153;SDS011;7677;41.896;25.004;2022-12-26T14:49:36;5.57;;;3.37;;
15153;SDS011;7677;41.896;25.004;2022-12-26T14:58:24;5.87;;;3.40;;
15153;SDS011;7677;41.896;25.004;2022-12-26T15:03:59;4.67;;;3.50;;
15153;SDS011;7677;41.896;25.004;2022-12-26T15:09:40;4.37;;;3.17;;
15153;SDS011;7677;41.896;25.004;2022-12-26T15:12:35;4.33;;;3.13;;
15153;SDS011;7677;41.896;25.004;2022-12-26T15:18:23;5.13;;;3.43;;
15153;SDS011;7677;41.896;25.004;2022-12-26T15:21:23;4.73;;;3.53;;
15153;SDS011;7677;41.896;25.004;2022-12-26T15:24:09;5.30;;;3.60;;
15153;SDS011;7677;41.896;25.004;2022-12-26T15:26:52;6.37;;;3.70;;
15153;SDS011;7677;41.896;25.004;2022-12-26T15:32:47;7.70;;;4.87;;
15153;SDS011;7677;41.896;25.004;2022-12-26T15:35:22;4.00;;;3.60;;
15153;SDS011;7677;41.896;25.004;2022-12-26T15:40:50;5.43;;;3.77;;
15153;SDS011;7677;41.896;25.004;2022-12-26T15:43:28;10.83;;;3.80;;
15153;SDS011;7677;41.896;25.004;2022-12-26T15:46:04;9.63;;;5.17;;
15153;SDS011;7677;41.896;25.004;2022-12-26T15:48:42;11.37;;;4.07;;
15153;SDS011;7677;41.896;25.004;2022-12-26T15:51:16;7.63;;;4.53;;
15153;SDS011;7677;41.896;25.004;2022-12-26T15:53:51;5.90;;;4.73;;
15153;SDS011;7677;41.896;25.004;2022-12-26T15:56:31;5.57;;;3.30;;
15153;SDS011;7677;41.896;25.004;2022-12-26T16:02:29;3.73;;;3.10;;
15153;SDS011;7677;41.896;25.004;2022-12-26T16:05:02;6.70;;;4.97;;
15153;SDS011;7677;41.896;25.004;2022-12-26T16:07:51;5.10;;;3.63;;
15153;SDS011;7677;41.896;25.004;2022-12-26T16:10:29;7.23;;;4.10;;